Time;durP1;ratioP1;P1;durP2;ratioP2;P2;SDS_P1;SDS_P2;PMS_P1;PMS_P2;Temp;Humidity;BMP_temperature;BMP_pressure;BME280_temperature;BME280_humidity;BME280_pressure;Samples;Min_cycle;Max_cycle;Signal;HPM_P1;HPM_P2
2021/03/24 00:02:09;;;;;;;2.40;2.00;;;14.50;72.50;;;;;;5125404;28;20445;-37
2021/03/24 00:04:39;;;;;;;2.40;1.83;;;14.50;74.70;;;;;;5125672;28;20452;-36
2021/03/24 00:07:09;;;;;;;1.80;1.70;;;14.50;73.80;;;;;;5126525;28;20449;-36
2021/03/24 00:09:39;;;;;;;2.77;2.43;;;14.50;75.80;;;;;;5125426;28;20534;-37
2021/03/24 00:12:11;;;;;;;1.67;1.57;;;14.40;75.50;;;;;;5123331;28;20495;-36
2021/03/24 00:14:42;;;;;;;1.87;1.70;;;14.40;70.40;;;;;;5125447;28;20491;-36
2021/03/24 00:17:12;;;;;;;2.03;1.93;;;14.60;77.10;;;;;;5126249;28;20438;-36
2021/03/24 00:19:42;;;;;;;2.67;1.83;;;14.60;72.20;;;;;;5125016;28;20456;-35
2021/03/24 00:22:12;;;;;;;1.80;1.70;;;14.50;69.70;;;;;;5120380;27;20504;-35
2021/03/24 00:24:42;;;;;;;2.47;1.70;;;14.40;67.40;;;;;;5122100;28;20449;-36
2021/03/24 00:27:12;;;;;;;1.87;1.47;;;14.20;69.60;;;;;;5124113;28;20449;-35
2021/03/24 00:29:43;;;;;;;3.53;1.80;;;14.10;69.10;;;;;;5125028;28;20455;-36
2021/03/24 00:32:13;;;;;;;1.57;1.47;;;14.10;70.90;;;;;;5124063;27;20457;-36
2021/03/24 00:34:45;;;;;;;1.83;1.73;;;14.10;73.40;;;;;;5125596;28;20446;-36
2021/03/24 00:37:16;;;;;;;1.90;1.80;;;14.10;72.80;;;;;;5120954;28;20507;-36
2021/03/24 00:39:46;;;;;;;3.03;1.40;;;14.00;72.80;;;;;;5121146;28;20449;-36
2021/03/24 00:42:16;;;;;;;1.40;1.30;;;14.10;70.70;;;;;;5123631;28;20473;-36
2021/03/24 00:44:48;;;;;;;2.50;1.70;;;14.10;72.40;;;;;;5118217;28;20471;-36
2021/03/24 00:47:18;;;;;;;1.70;1.60;;;14.10;73.80;;;;;;5124868;28;20450;-36
2021/03/24 00:49:48;;;;;;;1.10;1.00;;;14.20;74.80;;;;;;5123193;28;20445;-36
2021/03/24 00:52:32;;;;;;;1.80;1.50;;;14.20;69.20;;;;;;5125118;28;20496;-37
2021/03/24 00:55:05;;;;;;;2.30;1.53;;;14.10;74.00;;;;;;5121091;28;20960;-36
2021/03/24 00:57:35;;;;;;;1.60;1.50;;;14.00;70.40;;;;;;5119532;28;20796;-37
2021/03/24 01:00:09;;;;;;;1.53;1.33;;;14.00;72.00;;;;;;5118911;28;20465;-36
2021/03/24 01:02:39;;;;;;;2.10;1.73;;;13.80;74.30;;;;;;5124485;28;20469;-37
2021/03/24 01:05:11;;;;;;;1.50;1.23;;;13.90;72.90;;;;;;5125612;28;20438;-36
2021/03/24 01:07:43;;;;;;;2.50;1.47;;;13.70;72.00;;;;;;5125075;28;20457;-36
2021/03/24 01:10:16;;;;;;;1.57;1.27;;;13.70;72.70;;;;;;5124011;28;20472;-36
2021/03/24 01:12:46;;;;;;;3.07;2.87;;;13.60;73.70;;;;;;5121531;28;20464;-37
2021/03/24 01:15:19;;;;;;;2.93;2.67;;;13.60;74.50;;;;;;5124973;28;20449;-36
2021/03/24 01:17:49;;;;;;;2.47;1.63;;;13.50;72.80;;;;;;5124130;28;20438;-36
2021/03/24 01:20:19;;;;;;;2.13;2.00;;;13.50;73.30;;;;;;5130013;27;20525;-37
2021/03/24 01:22:55;;;;;;;3.30;2.30;;;13.40;76.10;;;;;;5124028;28;20477;-36
2021/03/24 01:25:26;;;;;;;1.73;1.63;;;13.30;76.30;;;;;;5124752;28;20510;-37
2021/03/24 01:27:58;;;;;;;3.23;1.50;;;13.30;78.40;;;;;;5123694;28;20881;-37
2021/03/24 01:30:33;;;;;;;3.40;1.30;;;13.30;78.30;;;;;;5123132;28;20540;-37
2021/03/24 01:33:03;;;;;;;3.50;1.70;;;13.20;78.70;;;;;;5120993;28;20458;-36
2021/03/24 01:35:36;;;;;;;1.87;1.77;;;13.20;81.70;;;;;;5117936;28;20438;-36
2021/03/24 01:38:06;;;;;;;1.47;1.37;;;13.00;79.30;;;;;;5123310;28;20445;-36
2021/03/24 01:40:39;;;;;;;1.63;1.53;;;13.00;77.90;;;;;;5124093;28;20446;-36
2021/03/24 01:43:19;;;;;;;2.07;1.90;;;13.10;76.20;;;;;;5119855;28;20618;-36
2021/03/24 01:46:24;;;;;;;1.93;1.20;;;13.10;76.90;;;;;;5124309;28;20442;-36
2021/03/24 01:48:58;;;;;;;1.63;1.53;;;13.00;74.70;;;;;;5123424;28;20456;-37
2021/03/24 01:51:47;;;;;;;4.83;4.20;;;12.90;74.30;;;;;;5123778;28;20488;-36
2021/03/24 01:54:20;;;;;;;36.43;32.50;;;12.80;76.60;;;;;;5122544;28;20479;-36
2021/03/24 01:56:56;;;;;;;89.67;73.93;;;12.80;75.70;;;;;;5123350;28;20441;-36
2021/03/24 01:59:26;;;;;;;10.77;9.67;;;12.70;76.00;;;;;;5124012;28;20505;-37
2021/03/24 02:02:15;;;;;;;4.27;3.83;;;12.70;77.20;;;;;;5122924;28;20471;-37
2021/03/24 02:04:49;;;;;;;81.10;75.67;;;12.60;76.10;;;;;;5123051;28;20475;-36
2021/03/24 02:07:24;;;;;;;228.23;202.13;;;12.60;78.00;;;;;;5123021;28;20455;-38
2021/03/24 02:10:01;;;;;;;102.13;93.33;;;12.50;77.40;;;;;;5120631;28;20466;-37
2021/03/24 02:12:38;;;;;;;4.53;4.23;;;12.40;79.50;;;;;;5122787;28;20452;-37
2021/03/24 02:15:12;;;;;;;3.40;3.20;;;12.30;79.40;;;;;;5120863;28;20523;-35
2021/03/24 02:17:49;;;;;;;2.17;2.07;;;12.30;79.60;;;;;;5122167;28;20441;-36
2021/03/24 02:20:25;;;;;;;2.03;1.83;;;12.20;80.10;;;;;;5128388;27;20779;-36
2021/03/24 02:22:59;;;;;;;2.50;2.30;;;12.10;81.70;;;;;;5122876;28;20938;-36
2021/03/24 02:25:35;;;;;;;2.70;2.13;;;12.00;83.30;;;;;;5123666;28;20525;-37
2021/03/24 02:28:11;;;;;;;3.70;2.40;;;11.90;83.90;;;;;;5122246;28;20445;-36
2021/03/24 02:30:44;;;;;;;2.73;2.53;;;11.80;84.00;;;;;;5122578;28;20474;-36
2021/03/24 02:33:21;;;;;;;2.47;2.27;;;11.70;85.10;;;;;;5124123;28;20535;-37
2021/03/24 02:35:53;;;;;;;2.77;2.37;;;11.60;86.20;;;;;;5123718;28;20489;-37
2021/03/24 02:38:25;;;;;;;2.57;2.37;;;11.50;86.70;;;;;;5122907;28;20796;-37
2021/03/24 02:40:57;;;;;;;3.03;2.40;;;11.40;89.00;;;;;;5119777;28;20452;-36
2021/03/24 02:43:30;;;;;;;2.63;2.20;;;11.30;90.00;;;;;;5117032;28;20448;-36
2021/03/24 02:46:02;;;;;;;3.17;2.70;;;11.20;90.50;;;;;;5122087;28;20448;-37
2021/03/24 02:48:35;;;;;;;2.57;2.37;;;11.10;91.40;;;;;;5122712;28;20443;-37
2021/03/24 02:51:09;;;;;;;3.43;3.13;;;11.00;91.40;;;;;;5122720;28;20563;-37
2021/03/24 02:53:40;;;;;;;4.23;3.17;;;10.80;93.30;;;;;;5122751;28;20448;-37
2021/03/24 02:56:12;;;;;;;3.87;3.57;;;10.70;96.00;;;;;;5120594;28;20455;-36
2021/03/24 02:58:43;;;;;;;4.83;3.20;;;10.60;97.40;;;;;;5122696;28;20564;-36
2021/03/24 03:01:20;;;;;;;2.73;2.43;;;10.50;97.30;;;;;;5120406;28;20451;-36
2021/03/24 03:03:52;;;;;;;4.10;3.70;;;10.40;99.90;;;;;;5121588;28;20501;-36
2021/03/24 03:06:25;;;;;;;5.03;4.63;;;10.40;99.90;;;;;;5121957;28;20548;-37
2021/03/24 03:08:59;;;;;;;6.37;5.87;;;10.30;99.90;;;;;;5115387;28;20466;-37
2021/03/24 03:11:40;;;;;;;8.02;6.50;;;10.20;99.90;;;;;;5121739;28;20905;-37
2021/03/24 03:14:18;;;;;;;8.50;7.80;;;10.10;99.90;;;;;;5122780;28;20197;-37
2021/03/24 03:16:53;;;;;;;8.57;7.77;;;10.00;99.90;;;;;;5123340;28;20207;-37
2021/03/24 03:19:27;;;;;;;9.20;8.13;;;9.90;99.90;;;;;;5126179;28;20532;-36
2021/03/24 03:22:02;;;;;;;7.10;6.53;;;9.80;99.90;;;;;;5124935;28;20226;-36
2021/03/24 03:24:37;;;;;;;6.85;6.35;;;9.80;99.90;;;;;;5122215;28;20527;-37
2021/03/24 03:27:11;;;;;;;6.85;6.20;;;9.80;99.90;;;;;;5125661;28;20550;-37
2021/03/24 03:29:44;;;;;;;6.20;5.53;;;9.70;99.90;;;;;;5124527;28;20200;-37
2021/03/24 03:32:18;;;;;;;8.07;6.90;;;9.70;99.90;;;;;;5125439;28;20280;-38
2021/03/24 03:34:53;;;;;;;7.68;6.95;;;9.70;99.90;;;;;;5126905;28;20202;-37
2021/03/24 03:37:25;;;;;;;8.23;7.47;;;9.60;99.90;;;;;;5120163;28;20196;-37
2021/03/24 03:39:57;;;;;;;7.90;7.30;;;9.50;99.90;;;;;;5126590;28;20214;-37
2021/03/24 03:42:29;;;;;;;7.65;6.88;;;9.40;99.90;;;;;;5124396;28;20924;-37
2021/03/24 03:45:01;;;;;;;8.73;7.10;;;9.40;99.90;;;;;;5125817;28;20319;-37
2021/03/24 03:47:31;;;;;;;8.25;7.43;;;9.40;99.90;;;;;;5121958;28;20566;-37
2021/03/24 03:50:02;;;;;;;8.02;6.85;;;9.40;99.90;;;;;;5123125;28;20594;-37
2021/03/24 03:52:46;;;;;;;7.50;6.80;;;9.30;99.90;;;;;;5118598;28;20208;-36
2021/03/24 03:55:29;;;;;;;7.40;6.72;;;9.40;99.90;;;;;;5126051;28;20330;-37
2021/03/24 03:58:05;;;;;;;7.07;5.68;;;9.30;99.90;;;;;;5123702;28;20212;-37
2021/03/24 04:00:42;;;;;;;6.10;5.38;;;9.20;99.90;;;;;;5124894;28;20211;-37
2021/03/24 04:03:16;;;;;;;7.32;5.47;;;9.10;99.90;;;;;;5124871;28;20233;-37
2021/03/24 04:05:51;;;;;;;9.43;8.50;;;9.00;99.90;;;;;;5125710;28;20200;-37
2021/03/24 04:08:24;;;;;;;8.55;7.75;;;9.00;99.90;;;;;;5113037;28;20200;-37
2021/03/24 04:10:58;;;;;;;11.05;8.80;;;8.90;99.90;;;;;;5126321;28;20225;-37
2021/03/24 04:13:31;;;;;;;8.40;7.60;;;8.90;99.90;;;;;;5124758;28;20203;-36
2021/03/24 04:16:04;;;;;;;8.38;7.57;;;8.80;99.90;;;;;;5125494;28;20200;-36
2021/03/24 04:18:38;;;;;;;8.60;7.38;;;8.70;99.90;;;;;;5124344;27;20207;-36
2021/03/24 04:21:11;;;;;;;13.18;8.10;;;8.70;99.90;;;;;;5125389;28;20218;-36
2021/03/24 04:23:46;;;;;;;8.50;7.60;;;8.70;99.90;;;;;;5125606;28;20244;-35
2021/03/24 04:26:20;;;;;;;8.02;7.05;;;8.70;99.90;;;;;;5124774;28;20249;-36
2021/03/24 04:28:53;;;;;;;7.40;6.40;;;8.60;99.90;;;;;;5123832;28;20253;-36
2021/03/24 04:31:27;;;;;;;7.60;6.47;;;8.60;99.90;;;;;;5125406;28;20224;-36
2021/03/24 04:33:58;;;;;;;6.78;6.18;;;8.60;99.90;;;;;;5121981;28;20201;-36
2021/03/24 04:36:34;;;;;;;7.20;6.50;;;8.60;99.90;;;;;;5121985;28;20204;-36
2021/03/24 04:39:09;;;;;;;8.57;6.72;;;8.60;99.90;;;;;;5123398;28;20215;-36
2021/03/24 04:41:44;;;;;;;8.30;7.50;;;8.60;99.90;;;;;;5124687;28;20232;-36
2021/03/24 04:44:20;;;;;;;8.18;7.38;;;8.50;99.90;;;;;;5123767;28;20200;-36
2021/03/24 04:46:53;;;;;;;8.20;6.95;;;8.50;99.90;;;;;;5125003;28;20211;-36
2021/03/24 04:49:26;;;;;;;6.50;5.40;;;8.50;99.90;;;;;;5124009;28;20212;-36
2021/03/24 04:51:59;;;;;;;5.72;5.20;;;8.70;99.90;;;;;;5125153;28;20281;-36
2021/03/24 04:54:32;;;;;;;8.75;5.05;;;8.80;99.90;;;;;;5123539;28;20211;-36
2021/03/24 04:57:06;;;;;;;6.18;4.70;;;8.90;99.90;;;;;;5123008;28;20294;-35
2021/03/24 04:59:39;;;;;;;3.63;3.33;;;8.90;99.90;;;;;;5125597;28;20204;-37
2021/03/24 05:02:13;;;;;;;3.80;3.10;;;9.00;99.90;;;;;;5120673;28;20207;-36
2021/03/24 05:04:48;;;;;;;2.92;2.70;;;9.00;99.90;;;;;;5113622;28;20282;-36
2021/03/24 05:07:26;;;;;;;4.35;2.60;;;9.10;99.90;;;;;;5124923;28;20237;-36
2021/03/24 05:09:56;;;;;;;2.88;2.50;;;9.00;99.90;;;;;;5125134;28;20208;-36
2021/03/24 05:12:29;;;;;;;4.35;2.50;;;9.00;99.90;;;;;;5124305;28;20228;-36
2021/03/24 05:15:03;;;;;;;3.28;2.58;;;9.00;99.90;;;;;;5124646;28;20204;-36
2021/03/24 05:17:36;;;;;;;4.47;1.98;;;9.10;99.90;;;;;;5120750;28;20707;-36
2021/03/24 05:20:13;;;;;;;3.00;2.25;;;9.00;99.90;;;;;;5114940;28;20204;-36
2021/03/24 05:22:45;;;;;;;4.07;1.90;;;8.90;99.90;;;;;;5124588;28;20290;-36
2021/03/24 05:25:21;;;;;;;2.38;1.90;;;8.90;99.90;;;;;;5123554;28;20276;-36
2021/03/24 05:27:55;;;;;;;3.78;2.05;;;8.90;99.90;;;;;;5123760;28;20229;-36
2021/03/24 05:30:28;;;;;;;2.88;2.55;;;8.70;99.90;;;;;;5124494;28;20667;-35
2021/03/24 05:33:05;;;;;;;2.72;2.35;;;8.50;99.90;;;;;;5124294;28;20274;-36
2021/03/24 05:35:44;;;;;;;4.80;2.28;;;8.50;99.90;;;;;;5123158;28;20215;-36
2021/03/24 05:38:20;;;;;;;2.47;2.22;;;8.40;99.90;;;;;;5116877;28;20301;-36
2021/03/24 05:41:00;;;;;;;2.42;2.22;;;8.30;99.90;;;;;;5123880;28;20265;-36
2021/03/24 05:43:48;;;;;;;2.85;2.33;;;8.30;99.90;;;;;;5118811;28;20207;-36
2021/03/24 05:46:33;;;;;;;3.35;2.20;;;8.20;99.90;;;;;;5119996;28;20252;-36
2021/03/24 05:49:18;;;;;;;4.78;2.30;;;8.20;99.90;;;;;;5116106;28;20211;-36
2021/03/24 05:52:01;;;;;;;4.32;2.40;;;8.30;99.90;;;;;;5123689;28;20234;-35
2021/03/24 05:54:45;;;;;;;4.82;2.95;;;8.30;99.90;;;;;;5118152;28;20210;-36
2021/03/24 05:57:28;;;;;;;3.30;2.45;;;8.30;99.90;;;;;;5123385;28;20207;-36
2021/03/24 06:00:10;;;;;;;3.20;2.35;;;8.40;99.90;;;;;;5123667;28;20281;-35
2021/03/24 06:02:47;;;;;;;2.75;2.47;;;8.40;99.90;;;;;;5120871;28;20235;-35
2021/03/24 06:05:25;;;;;;;5.75;2.13;;;8.40;99.90;;;;;;5119106;28;20214;-35
2021/03/24 06:08:15;;;;;;;4.25;2.47;;;8.40;99.90;;;;;;5123719;28;20268;-37
2021/03/24 06:11:07;;;;;;;3.08;2.20;;;8.30;99.90;;;;;;5123961;28;20226;-37
2021/03/24 06:14:15;;;;;;;2.28;2.15;;;8.40;99.90;;;;;;5078670;28;20222;-36
2021/03/24 06:17:18;;;;;;;2.90;2.70;;;8.40;99.90;;;;;;5117395;28;20204;-37
2021/03/24 06:19:59;;;;;;;3.60;2.35;;;8.30;99.90;;;;;;5123429;28;20200;-37
2021/03/24 06:22:55;;;;;;;5.40;3.15;;;8.30;99.90;;;;;;5122605;28;20226;-36
2021/03/24 06:25:35;;;;;;;3.60;3.05;;;8.30;99.90;;;;;;5123473;28;20207;-37
2021/03/24 06:28:20;;;;;;;5.50;2.80;;;8.40;99.90;;;;;;5122658;28;20206;-37
2021/03/24 06:31:01;;;;;;;3.10;2.78;;;8.40;99.90;;;;;;5123252;28;20243;-37
2021/03/24 06:34:03;;;;;;;3.60;3.08;;;8.40;99.90;;;;;;5123057;28;20208;-37
2021/03/24 06:37:04;;;;;;;5.68;2.95;;;8.30;99.90;;;;;;5058586;28;20621;-37
2021/03/24 06:39:58;;;;;;;7.20;3.10;;;8.30;99.90;;;;;;5059915;28;20209;-37
2021/03/24 06:42:41;;;;;;;4.65;3.40;;;8.40;99.90;;;;;;5052442;28;20244;-36
2021/03/24 06:45:42;;;;;;;3.58;3.10;;;8.40;99.90;;;;;;5059188;28;20202;-37
2021/03/24 06:48:26;;;;;;;3.20;2.90;;;8.40;99.90;;;;;;5058445;28;20213;-37
2021/03/24 06:51:43;;;;;;;4.95;3.05;;;8.40;99.90;;;;;;5058672;28;20244;-37
2021/03/24 06:54:35;;;;;;;7.85;3.67;;;8.40;99.90;;;;;;5058754;28;20224;-37
2021/03/24 06:57:45;;;;;;;4.95;3.70;;;8.40;99.90;;;;;;5055404;28;20653;-37
2021/03/24 07:00:25;;;;;;;3.75;3.30;;;8.50;99.90;;;;;;5057090;28;20202;-37
2021/03/24 07:03:32;;;;;;;3.47;3.17;;;8.50;99.90;;;;;;5058521;28;20245;-37
2021/03/24 07:06:23;;;;;;;2.88;2.65;;;8.50;99.90;;;;;;5058879;28;20739;-37
2021/03/24 07:09:14;;;;;;;4.05;3.20;;;8.50;99.90;;;;;;5058127;28;20712;-36
2021/03/24 07:11:57;;;;;;;3.30;3.00;;;8.50;99.90;;;;;;5063342;28;20227;-36
2021/03/24 07:15:05;;;;;;;3.55;2.85;;;8.60;99.90;;;;;;5123048;28;20227;-37
2021/03/24 07:18:00;;;;;;;4.20;2.90;;;8.60;99.90;;;;;;5118388;28;20207;-37
2021/03/24 07:21:05;;;;;;;3.13;2.67;;;8.60;99.90;;;;;;5117960;28;20200;-37
2021/03/24 07:24:07;;;;;;;3.70;3.33;;;8.70;99.90;;;;;;5119196;28;20204;-37
2021/03/24 07:27:10;;;;;;;3.38;2.80;;;8.60;99.90;;;;;;5112444;28;20200;-36
2021/03/24 07:29:56;;;;;;;4.20;2.85;;;8.60;99.90;;;;;;5109597;28;20259;-36
2021/03/24 07:32:47;;;;;;;3.17;2.60;;;8.70;99.90;;;;;;5122247;28;20240;-37
2021/03/24 07:35:34;;;;;;;3.42;2.53;;;8.60;99.90;;;;;;5116733;28;20223;-37
2021/03/24 07:38:36;;;;;;;5.28;2.90;;;8.60;99.90;;;;;;5121909;28;20199;-37
2021/03/24 07:41:51;;;;;;;5.70;3.50;;;8.50;99.90;;;;;;5121510;28;20235;-36
2021/03/24 07:44:52;;;;;;;6.20;3.50;;;8.50;99.90;;;;;;5115158;28;20328;-37
2021/03/24 07:47:47;;;;;;;5.90;3.10;;;8.40;99.90;;;;;;5117493;28;20236;-37
2021/03/24 07:50:31;;;;;;;2.88;2.60;;;8.30;99.90;;;;;;5115523;28;20628;-37
2021/03/24 07:53:24;;;;;;;3.53;3.03;;;8.30;99.90;;;;;;5122859;28;20251;-37
2021/03/24 07:56:06;;;;;;;4.00;2.97;;;8.20;99.90;;;;;;5121227;28;20207;-37
2021/03/24 07:59:28;;;;;;;4.35;3.92;;;8.10;99.90;;;;;;5122126;28;20208;-37
2021/03/24 08:02:25;;;;;;;4.18;2.92;;;8.10;99.90;;;;;;5117401;28;20208;-37
2021/03/24 08:05:21;;;;;;;3.53;3.03;;;8.10;99.90;;;;;;5126088;28;20212;-37
2021/03/24 08:08:04;;;;;;;3.15;2.85;;;8.10;99.90;;;;;;5125226;28;20226;-37
2021/03/24 08:10:39;;;;;;;4.38;3.83;;;8.20;99.90;;;;;;5126558;28;20199;-37
2021/03/24 08:13:45;;;;;;;4.88;3.70;;;8.10;99.90;;;;;;5119683;28;20285;-37
2021/03/24 08:16:36;;;;;;;3.58;3.28;;;8.00;99.90;;;;;;5125127;28;20299;-37
2021/03/24 08:19:27;;;;;;;3.53;3.20;;;8.00;99.90;;;;;;5116408;28;20204;-37
2021/03/24 08:22:30;;;;;;;5.97;3.90;;;7.90;99.90;;;;;;5125366;28;20291;-37
2021/03/24 08:25:12;;;;;;;3.88;3.58;;;7.90;99.90;;;;;;5102416;28;20199;-37
2021/03/24 08:27:48;;;;;;;5.05;3.17;;;7.80;99.90;;;;;;5123754;28;20196;-37
2021/03/24 08:30:23;;;;;;;3.47;3.17;;;7.80;99.90;;;;;;5111765;28;20211;-36
2021/03/24 08:33:28;;;;;;;4.68;3.80;;;7.80;99.90;;;;;;5125881;28;20284;-37
2021/03/24 08:36:29;;;;;;;4.40;4.00;;;7.80;99.90;;;;;;5125805;28;20200;-37
2021/03/24 08:39:37;;;;;;;3.33;3.03;;;7.80;99.90;;;;;;5104081;28;20203;-37
2021/03/24 08:42:45;;;;;;;5.85;3.70;;;7.70;99.90;;;;;;5122633;28;20231;-37
2021/03/24 08:45:24;;;;;;;4.28;3.38;;;7.70;99.90;;;;;;5123572;28;20252;-37
2021/03/24 08:47:57;;;;;;;5.15;3.72;;;7.80;99.90;;;;;;5122576;28;20207;-37
2021/03/24 08:50:30;;;;;;;3.92;3.63;;;7.70;99.90;;;;;;5125079;28;20216;-37
2021/03/24 08:53:07;;;;;;;6.05;3.53;;;7.70;99.90;;;;;;5124696;28;20236;-37
2021/03/24 08:55:47;;;;;;;4.63;3.80;;;7.80;99.90;;;;;;5124518;28;20668;-37
2021/03/24 08:58:20;;;;;;;5.55;3.30;;;7.80;99.90;;;;;;5124144;28;20253;-37
2021/03/24 09:01:19;;;;;;;4.47;3.60;;;7.80;99.90;;;;;;5115085;28;20200;-36
2021/03/24 09:04:22;;;;;;;3.70;2.70;;;7.80;99.90;;;;;;5118092;28;20196;-37
2021/03/24 09:07:03;;;;;;;6.45;3.15;;;7.80;99.90;;;;;;5107987;28;20331;-37
2021/03/24 09:09:45;;;;;;;4.28;3.20;;;8.00;99.90;;;;;;5125876;28;20328;-37
2021/03/24 09:12:22;;;;;;;3.85;3.45;;;7.90;99.90;;;;;;5118109;28;20223;-37
2021/03/24 09:14:59;;;;;;;5.30;2.90;;;7.90;99.90;;;;;;5123774;28;20229;-37
2021/03/24 09:17:57;;;;;;;5.60;2.70;;;7.90;99.90;;;;;;5119847;28;20277;-37
2021/03/24 09:20:50;;;;;;;3.40;3.10;;;7.90;99.90;;;;;;5123023;28;20203;-37
2021/03/24 09:23:52;;;;;;;3.35;3.05;;;7.90;99.90;;;;;;5124776;28;20241;-37
2021/03/24 09:26:58;;;;;;;3.63;3.33;;;7.80;99.90;;;;;;5118255;28;20211;-37
2021/03/24 09:29:48;;;;;;;4.88;3.60;;;7.90;99.90;;;;;;5061580;28;20206;-37
2021/03/24 09:32:23;;;;;;;5.65;4.00;;;7.80;99.90;;;;;;5058308;28;20252;-37
2021/03/24 09:35:14;;;;;;;5.10;3.95;;;7.80;99.90;;;;;;5052927;28;20252;-37
2021/03/24 09:37:48;;;;;;;4.30;3.50;;;7.80;99.90;;;;;;5058755;28;20202;-37
2021/03/24 09:40:31;;;;;;;4.70;4.30;;;7.70;99.90;;;;;;5061297;28;20198;-36
2021/03/24 09:43:05;;;;;;;3.88;3.53;;;7.60;99.90;;;;;;5052666;28;20225;-37
2021/03/24 09:45:39;;;;;;;5.03;3.50;;;7.60;99.90;;;;;;5060604;28;20218;-37
2021/03/24 09:48:14;;;;;;;4.78;3.67;;;7.50;99.90;;;;;;5059698;28;20203;-37
2021/03/24 09:50:58;;;;;;;4.03;3.60;;;7.40;99.90;;;;;;5060963;28;20602;-37
2021/03/24 09:53:29;;;;;;;4.47;4.07;;;7.40;99.90;;;;;;5061332;28;20214;-37
2021/03/24 09:56:05;;;;;;;5.25;4.75;;;7.40;99.90;;;;;;5061127;28;20206;-37
2021/03/24 09:58:49;;;;;;;9.57;8.00;;;7.30;99.90;;;;;;5059708;28;20201;-37
2021/03/24 10:01:38;;;;;;;7.78;7.00;;;7.30;99.90;;;;;;5060470;28;20217;-37
2021/03/24 10:04:19;;;;;;;10.63;9.00;;;7.20;99.90;;;;;;5058504;28;20200;-38
2021/03/24 10:07:03;;;;;;;12.38;10.70;;;7.20;99.90;;;;;;5118248;28;20286;-37
2021/03/24 10:09:39;;;;;;;14.18;12.68;;;7.20;99.90;;;;;;5124163;28;20204;-37
2021/03/24 10:12:23;;;;;;;13.30;12.05;;;7.20;99.90;;;;;;5116448;28;20223;-37
2021/03/24 10:15:03;;;;;;;14.70;12.60;;;7.20;99.90;;;;;;5124020;28;20204;-37
2021/03/24 10:17:37;;;;;;;15.77;13.02;;;7.20;99.90;;;;;;5122831;28;20285;-38
2021/03/24 10:20:19;;;;;;;14.38;12.38;;;7.10;99.90;;;;;;5114701;28;20230;-37
2021/03/24 10:22:53;;;;;;;15.13;12.90;;;7.00;99.90;;;;;;5113197;28;20215;-38
2021/03/24 10:25:31;;;;;;;15.15;13.55;;;7.00;99.90;;;;;;5124182;28;20203;-37
2021/03/24 10:28:07;;;;;;;16.95;14.27;;;6.90;99.90;;;;;;5122049;28;21118;-37
2021/03/24 10:30:42;;;;;;;15.30;12.90;;;7.00;99.90;;;;;;5122805;28;20253;-37
2021/03/24 10:33:26;;;;;;;15.23;13.73;;;7.00;99.90;;;;;;5123030;28;20231;-37
2021/03/24 10:36:05;;;;;;;16.25;14.05;;;7.10;99.90;;;;;;5123202;28;20264;-37
2021/03/24 10:38:47;;;;;;;15.13;13.52;;;7.00;99.90;;;;;;5123566;28;20223;-37
2021/03/24 10:41:22;;;;;;;18.65;15.02;;;7.10;99.90;;;;;;5121541;28;20203;-37
2021/03/24 10:44:15;;;;;;;17.10;13.90;;;7.20;99.90;;;;;;5123600;28;20217;-37
2021/03/24 10:47:04;;;;;;;16.60;12.88;;;7.20;99.90;;;;;;5122631;28;20204;-37
2021/03/24 10:49:42;;;;;;;14.82;13.43;;;7.20;99.90;;;;;;5122825;28;20634;-37
2021/03/24 10:52:19;;;;;;;15.20;13.52;;;7.30;99.90;;;;;;5117582;28;20280;-37
2021/03/24 10:54:59;;;;;;;15.60;13.30;;;7.30;99.90;;;;;;5122978;28;20232;-37
2021/03/24 10:57:48;;;;;;;17.15;12.77;;;7.40;99.90;;;;;;5122454;28;20651;-36
2021/03/24 11:00:25;;;;;;;14.18;12.77;;;7.40;99.90;;;;;;5115218;28;20325;-37
2021/03/24 11:03:05;;;;;;;14.85;12.90;;;7.40;99.90;;;;;;5122496;28;20226;-37
2021/03/24 11:05:41;;;;;;;14.75;13.35;;;7.40;99.90;;;;;;5122723;28;20199;-36
2021/03/24 11:08:27;;;;;;;13.45;12.13;;;7.40;99.90;;;;;;5114779;28;20212;-37
2021/03/24 11:11:06;;;;;;;15.98;14.02;;;7.40;99.90;;;;;;5122970;28;20200;-37
2021/03/24 11:13:42;;;;;;;16.65;13.55;;;7.40;99.90;;;;;;5122516;28;20242;-37
2021/03/24 11:16:24;;;;;;;17.00;13.05;;;7.50;99.90;;;;;;5122078;28;20214;-37
2021/03/24 11:19:06;;;;;;;14.55;13.02;;;7.50;99.90;;;;;;5121767;28;20199;-37
2021/03/24 11:21:57;;;;;;;13.63;12.23;;;7.60;99.90;;;;;;5122409;28;20200;-37
2021/03/24 11:24:34;;;;;;;12.77;11.55;;;7.60;99.90;;;;;;5116673;28;20211;-37
2021/03/24 11:27:13;;;;;;;15.32;11.55;;;7.60;99.90;;;;;;5121626;28;20260;-37
2021/03/24 11:29:54;;;;;;;13.20;11.52;;;7.50;99.90;;;;;;5122195;28;20219;-37
2021/03/24 11:32:38;;;;;;;13.35;10.95;;;7.50;99.90;;;;;;5122540;28;20288;-37
2021/03/24 11:35:21;;;;;;;12.07;10.80;;;7.50;99.90;;;;;;5122784;28;20268;-37
2021/03/24 11:38:00;;;;;;;11.63;10.60;;;7.50;99.90;;;;;;5121769;28;20212;-37
2021/03/24 11:40:39;;;;;;;12.20;10.93;;;7.60;99.90;;;;;;5126721;28;20233;-37
2021/03/24 11:43:17;;;;;;;11.65;10.30;;;7.60;99.90;;;;;;5121718;28;20296;-38
2021/03/24 11:45:48;;;;;;;13.40;11.13;;;7.60;99.90;;;;;;5124244;28;20680;-37
2021/03/24 11:48:39;;;;;;;13.85;11.70;;;7.60;99.90;;;;;;5121472;28;20197;-37
2021/03/24 11:51:21;;;;;;;11.75;10.55;;;7.60;99.90;;;;;;5124475;28;20206;-37
2021/03/24 11:54:04;;;;;;;12.80;11.00;;;7.60;99.90;;;;;;5127049;28;20207;-37
2021/03/24 11:56:53;;;;;;;11.35;9.50;;;7.60;99.90;;;;;;5124786;28;20211;-37
2021/03/24 11:59:31;;;;;;;9.93;8.18;;;7.70;99.90;;;;;;5120825;28;20205;-37
2021/03/24 12:02:14;;;;;;;10.40;8.68;;;7.70;99.90;;;;;;5121765;28;20272;-37
2021/03/24 12:05:06;;;;;;;9.13;8.23;;;7.70;99.90;;;;;;5115948;28;20625;-36
2021/03/24 12:07:52;;;;;;;12.57;9.07;;;7.70;99.90;;;;;;5125016;28;20210;-36
2021/03/24 12:10:32;;;;;;;8.80;8.00;;;7.70;99.90;;;;;;5126206;28;20208;-36
2021/03/24 12:13:09;;;;;;;9.90;7.45;;;7.70;99.90;;;;;;5125469;28;20588;-37
2021/03/24 12:15:42;;;;;;;13.00;9.07;;;7.60;99.90;;;;;;5125630;28;20200;-37
2021/03/24 12:18:16;;;;;;;9.95;8.48;;;7.70;99.90;;;;;;5122150;28;20249;-37
2021/03/24 12:20:59;;;;;;;9.98;8.77;;;7.70;99.90;;;;;;5125080;28;20204;-37
2021/03/24 12:23:34;;;;;;;8.73;7.93;;;7.70;99.90;;;;;;5125920;28;20280;-37
2021/03/24 12:26:06;;;;;;;12.30;9.15;;;7.70;99.90;;;;;;5119656;28;20267;-37
2021/03/24 12:28:41;;;;;;;8.95;8.15;;;7.80;99.90;;;;;;5120919;28;20211;-36
2021/03/24 12:31:21;;;;;;;10.98;8.20;;;7.70;99.90;;;;;;5125036;28;20215;-37
2021/03/24 12:33:54;;;;;;;10.00;9.02;;;7.70;99.90;;;;;;5125853;28;20263;-36
2021/03/24 12:36:27;;;;;;;9.82;8.30;;;7.70;99.90;;;;;;5125198;28;20550;-37
2021/03/24 12:39:01;;;;;;;10.55;8.90;;;7.70;99.90;;;;;;5125755;28;20257;-36
2021/03/24 12:41:36;;;;;;;9.98;8.98;;;7.70;99.90;;;;;;5124530;28;21019;-37
2021/03/24 12:44:09;;;;;;;9.73;8.75;;;7.70;99.90;;;;;;5118879;28;20272;-37
2021/03/24 12:46:50;;;;;;;10.30;8.90;;;7.70;99.90;;;;;;5119150;28;20266;-37
2021/03/24 12:49:26;;;;;;;9.73;8.82;;;7.70;99.90;;;;;;5122988;28;20617;-36
2021/03/24 12:52:17;;;;;;;10.38;8.95;;;7.70;99.90;;;;;;5124924;28;20211;-36
2021/03/24 12:54:47;;;;;;;9.70;8.50;;;7.70;99.90;;;;;;5125504;28;20192;-36
2021/03/24 12:57:35;;;;;;;8.95;8.05;;;7.80;99.90;;;;;;5117727;28;20204;-37
2021/03/24 13:00:33;;;;;;;12.82;8.77;;;7.80;99.90;;;;;;5117228;28;20200;-37
2021/03/24 13:03:41;;;;;;;9.25;8.10;;;7.70;99.90;;;;;;5124608;28;20283;-37
2021/03/24 13:06:28;;;;;;;10.73;9.05;;;7.70;99.90;;;;;;5122082;28;20200;-37
2021/03/24 13:09:09;;;;;;;10.65;8.35;;;7.70;99.90;;;;;;5125252;28;20257;-36
2021/03/24 13:11:47;;;;;;;9.77;8.88;;;7.60;99.90;;;;;;5120580;28;20565;-37
2021/03/24 13:15:01;;;;;;;9.85;8.93;;;7.60;99.90;;;;;;5125043;28;20263;-37
2021/03/24 13:17:42;;;;;;;10.80;9.10;;;7.60;99.90;;;;;;5021051;28;20323;-36
2021/03/24 13:20:25;;;;;;;10.73;9.73;;;7.60;99.90;;;;;;5014456;28;20244;-36
2021/03/24 13:23:03;;;;;;;11.65;9.00;;;7.60;99.90;;;;;;5021576;28;20211;-36
2021/03/24 13:25:42;;;;;;;9.13;8.23;;;7.60;99.90;;;;;;5022336;28;20203;-36
2021/03/24 13:28:25;;;;;;;9.68;8.63;;;7.60;99.90;;;;;;5020197;28;20196;-37
2021/03/24 13:31:03;;;;;;;11.95;9.38;;;7.50;99.90;;;;;;5021127;28;20242;-37
2021/03/24 13:34:02;;;;;;;8.50;7.60;;;7.50;99.90;;;;;;5015478;28;20227;-37
2021/03/24 13:36:38;;;;;;;10.25;9.15;;;7.40;99.90;;;;;;5013140;28;20238;-37
2021/03/24 13:39:14;;;;;;;11.00;8.05;;;7.40;99.90;;;;;;5018154;28;20261;-37
2021/03/24 13:41:50;;;;;;;8.38;7.57;;;7.50;99.90;;;;;;5019975;28;20349;-36
2021/03/24 13:44:33;;;;;;;9.55;8.65;;;7.40;99.90;;;;;;5021563;28;20207;-37
2021/03/24 13:47:08;;;;;;;9.07;7.95;;;7.40;99.90;;;;;;5016010;28;20291;-36
2021/03/24 13:49:44;;;;;;;8.90;7.90;;;7.30;99.90;;;;;;5021348;28;20195;-37
2021/03/24 13:52:43;;;;;;;9.57;8.00;;;7.30;99.90;;;;;;5034642;28;20283;-37
2021/03/24 13:55:30;;;;;;;8.70;7.80;;;7.30;99.90;;;;;;5080085;28;20205;-37
2021/03/24 13:58:14;;;;;;;11.80;7.32;;;7.30;99.90;;;;;;5079141;28;20568;-36
2021/03/24 14:00:50;;;;;;;7.80;6.65;;;7.20;99.90;;;;;;5082432;28;20205;-37